Погода Сан-Бернардинона неделю

Калифорния, США

01 - 07 сентября
  • 01сентября
    Сегодня
    +16°
    +33°
    Ясно и безоблачно
    ВремяПогодаТемператураВлажностьДавлениеВетер, м/сВероятность осадков
    02:00Ясно и безоблачно+20°C50 %733 мм1.2 м/с2 %
    05:00Ясно и безоблачно+18°C56 %733 мм0.5 м/с2 %
    08:00Ясно и безоблачно+20°C49 %734 мм0.3 м/с2 %
    11:00Ясно и безоблачно+27°C32 %734 мм0.8 м/с2 %
    14:00Ясно и безоблачно+33°C15 %734 мм3.5 м/с2 %
    17:00Ясно и безоблачно+32°C20 %732 мм5.9 м/с2 %
    20:00Ясно и безоблачно+25°C26 %733 мм3.7 м/с2 %
    23:00Ясно и безоблачно+21°C42 %734 мм1.9 м/с2 %
  • 02сентября
    Среда
    +16°
    +33°
    Ясно и безоблачно
    ВремяПогодаТемператураВлажностьДавлениеВетер, м/сВероятность осадков
    02:00Ясно и безоблачно+18°C48 %734 мм0.6 м/с2 %
    05:00Ясно и безоблачно+17°C48 %733 мм0.1 м/с2 %
    08:00Ясно и безоблачно+18°C43 %734 мм0.1 м/с2 %
    11:00Ясно и безоблачно+26°C28 %735 мм0.5 м/с2 %
    14:00Ясно и безоблачно+32°C14 %733 мм3.3 м/с2 %
    17:00Ясно и безоблачно+31°C17 %732 мм5.4 м/с2 %
    20:00Ясно и безоблачно+25°C23 %733 мм4.0 м/с2 %
    23:00Ясно и безоблачно+21°C41 %733 мм1.8 м/с2 %
  • 03сентября
    Четверг
    +16°
    +32°
    Ясно и безоблачно
    ВремяПогодаТемператураВлажностьДавлениеВетер, м/сВероятность осадков
    02:00Ясно и безоблачно+19°C45 %733 мм0.7 м/с2 %
    05:00Ясно и безоблачно+17°C46 %732 мм0.0 м/с2 %
    08:00Ясно и безоблачно+19°C41 %733 мм0.0 м/с2 %
    11:00Ясно и безоблачно+26°C27 %733 мм0.2 м/с2 %
    14:00Ясно и безоблачно+31°C18 %732 мм3.1 м/с2 %
    17:00Ясно и безоблачно+30°C23 %731 мм5.3 м/с2 %
    20:00Ясно и безоблачно+24°C35 %731 мм4.1 м/с2 %
    23:00Ясно и безоблачно+21°C53 %732 мм1.8 м/с2 %
  • 04сентября
    Пятница
    +18°
    +33°
    Ясно и безоблачно
    ВремяПогодаТемператураВлажностьДавлениеВетер, м/сВероятность осадков
    02:00Ясно и безоблачно+19°C63 %732 мм0.4 м/с2 %
    05:00Ясно и безоблачно+17°C63 %731 мм0.0 м/с2 %
    08:00Ясно и безоблачно+18°C47 %732 мм0.0 м/с2 %
    11:00Ясно и безоблачно+26°C27 %733 мм0.0 м/с2 %
    14:00Ясно и безоблачно+32°C21 %731 мм2.7 м/с2 %
    17:00Ясно и безоблачно+31°C22 %731 мм4.9 м/с2 %
    20:00Ясно и безоблачно+25°C31 %732 мм3.7 м/с2 %
    23:00Ясно и безоблачно+22°C47 %732 мм1.5 м/с3 %
  • 05сентября
    Суббота
    +20°
    +35°
    Ясно и безоблачно
    ВремяПогодаТемператураВлажностьДавлениеВетер, м/сВероятность осадков
    02:00Ясно и безоблачно+19°C46 %732 мм0.4 м/с5 %
    05:00Ясно и безоблачно+18°C44 %732 мм0.1 м/с9 %
    08:00Ясно и безоблачно+21°C36 %733 мм0.0 м/с16 %
    11:00Практически безоблачно+29°C17 %733 мм0.0 м/с21 %
    14:00Ясно и безоблачно+34°C19 %732 мм3.3 м/с27 %
    17:00Ясно и безоблачно+32°C20 %731 мм5.0 м/с28 %
    20:00Ясно и безоблачно+27°C24 %732 мм3.3 м/с25 %
    23:00Облачно с прояснениями+24°C38 %733 мм1.3 м/с24 %
  • 06сентября
    Воскресенье
    +20°
    +34°
    Ясно и безоблачно
    ВремяПогодаТемператураВлажностьДавлениеВетер, м/сВероятность осадков
    05:00Практически безоблачно+21°C64 %732 мм0.4 м/с27 %
    11:00Ясно и безоблачно+29°C42 %733 мм0.3 м/с24 %
    17:00Ясно и безоблачно+33°C59 %731 мм3.9 м/с37 %
    23:00Ясно и безоблачно+24°C51 %733 мм1.3 м/с32 %
  • 07сентября
    Понедельник
    +19°
    +34°
    Ясно и безоблачно
    ВремяПогодаТемператураВлажностьДавлениеВетер, м/сВероятность осадков
    05:00Ясно и безоблачно+20°C54 %732 мм1.3 м/с21 %
    11:00Ясно и безоблачно+29°C25 %733 мм2.5 м/с19 %
    17:00Ясно и безоблачно+31°C22 %731 мм3.4 м/с34 %
    23:00Ясно и безоблачно+23°C47 %732 мм1.3 м/с25 %
Мы используем cookies
Соглашаюсь